createdAt,value
2017-10-10T00:01:52.974Z,8.60
2017-10-10T00:04:20.630Z,8.52
2017-10-10T00:06:48.243Z,9.27
2017-10-10T00:09:15.877Z,8.35
2017-10-10T00:11:43.518Z,9.32
2017-10-10T00:14:11.131Z,9.98
2017-10-10T00:16:38.780Z,8.57
2017-10-10T00:19:07.214Z,9.30
2017-10-10T00:21:34.835Z,9.68
2017-10-10T00:24:02.470Z,10.85
2017-10-10T00:26:30.092Z,8.68
2017-10-10T00:28:58.518Z,10.75
2017-10-10T00:31:26.634Z,8.82
2017-10-10T00:33:54.241Z,8.60
2017-10-10T00:36:21.874Z,8.25
2017-10-10T00:38:49.479Z,8.75
2017-10-10T00:41:17.244Z,11.25
2017-10-10T00:43:44.852Z,10.27
2017-10-10T00:46:13.235Z,8.65
2017-10-10T00:48:40.882Z,9.55
2017-10-10T00:51:08.495Z,11.30
2017-10-10T00:53:36.943Z,10.35
2017-10-10T00:56:04.552Z,9.57
2017-10-10T00:58:32.173Z,11.73
2017-10-10T01:00:59.818Z,11.10
2017-10-10T01:03:27.445Z,10.93
2017-10-10T01:05:55.876Z,11.18
2017-10-10T01:08:23.483Z,10.23
2017-10-10T01:10:51.114Z,10.90
2017-10-10T01:13:19.522Z,9.65
2017-10-10T01:15:47.208Z,11.98
2017-10-10T01:18:14.857Z,12.23
2017-10-10T01:20:42.474Z,10.10
2017-10-10T01:23:10.089Z,12.07
2017-10-10T01:25:37.726Z,10.32
2017-10-10T01:28:05.387Z,12.70
2017-10-10T01:30:33.045Z,10.98
2017-10-10T01:33:00.667Z,13.07
2017-10-10T01:35:28.284Z,11.20
2017-10-10T01:37:57.553Z,12.18
2017-10-10T01:40:25.398Z,10.40
2017-10-10T01:42:53.055Z,13.20
2017-10-10T01:45:20.682Z,14.15
2017-10-10T01:47:48.297Z,12.23
2017-10-10T01:50:16.201Z,14.85
2017-10-10T01:52:43.819Z,13.70
2017-10-10T01:55:11.466Z,14.15
2017-10-10T01:57:39.091Z,11.68
2017-10-10T02:00:06.889Z,14.95
2017-10-10T02:02:35.337Z,13.45
2017-10-10T02:05:03.010Z,13.25
2017-10-10T02:07:31.434Z,12.27
2017-10-10T02:09:59.057Z,13.18
2017-10-10T02:12:27.311Z,12.98
2017-10-10T02:14:54.966Z,15.25
2017-10-10T02:17:22.585Z,14.00
2017-10-10T02:19:51.007Z,15.18
2017-10-10T02:22:18.633Z,15.02
2017-10-10T02:24:46.285Z,19.92
2017-10-10T02:27:13.958Z,16.50
2017-10-10T02:29:41.579Z,16.37
2017-10-10T02:32:09.237Z,16.45
2017-10-10T02:34:36.885Z,15.85
2017-10-10T02:37:04.516Z,17.52
2017-10-10T02:39:32.166Z,14.00
2017-10-10T02:41:59.794Z,13.73
2017-10-10T02:44:28.368Z,17.50
2017-10-10T02:46:56.105Z,13.88
2017-10-10T02:49:23.730Z,14.98
2017-10-10T02:51:52.150Z,15.82
2017-10-10T02:54:19.772Z,15.48
2017-10-10T02:56:47.442Z,17.10
2017-10-10T02:59:15.084Z,15.05
2017-10-10T03:01:42.811Z,17.75
2017-10-10T03:04:10.459Z,16.42
2017-10-10T03:06:38.087Z,20.08
2017-10-10T03:09:05.875Z,17.83
2017-10-10T03:11:33.495Z,21.02
2017-10-10T03:14:01.120Z,19.05
2017-10-10T03:16:29.525Z,19.27
2017-10-10T03:18:57.856Z,18.80
2017-10-10T03:21:25.583Z,18.30
2017-10-10T03:23:53.973Z,19.95
2017-10-10T03:26:21.600Z,16.50
2017-10-10T03:28:50.010Z,18.75
2017-10-10T03:31:17.640Z,19.15
2017-10-10T03:33:46.898Z,22.55
2017-10-10T03:36:15.384Z,18.35
2017-10-10T03:38:42.996Z,18.58
2017-10-10T03:41:10.639Z,17.60
2017-10-10T03:43:38.257Z,19.25
2017-10-10T03:46:05.939Z,18.00
2017-10-10T03:48:34.326Z,19.12
2017-10-10T03:51:01.955Z,25.08
2017-10-10T03:53:30.367Z,19.23
2017-10-10T03:55:57.994Z,22.13
2017-10-10T03:58:25.850Z,17.60
2017-10-10T04:00:53.469Z,15.57
2017-10-10T04:03:21.854Z,17.95
2017-10-10T04:05:49.534Z,19.62
2017-10-10T04:08:17.186Z,19.42
2017-10-10T04:10:44.855Z,30.30
2017-10-10T04:13:12.479Z,30.02
2017-10-10T04:15:40.095Z,24.85
2017-10-10T04:18:07.737Z,21.95
2017-10-10T04:20:35.384Z,27.10
2017-10-10T04:23:03.045Z,23.73
2017-10-10T04:25:30.666Z,24.55
2017-10-10T04:28:01.150Z,28.50
2017-10-10T04:30:29.559Z,21.75
2017-10-10T04:32:57.277Z,26.45
2017-10-10T04:35:25.820Z,22.98
2017-10-10T04:37:53.458Z,31.55
2017-10-10T04:40:21.083Z,22.42
2017-10-10T04:42:48.724Z,28.90
2017-10-10T04:45:16.343Z,23.30
2017-10-10T04:47:44.024Z,25.85
2017-10-10T04:50:11.671Z,30.67
2017-10-10T04:52:39.342Z,33.85
2017-10-10T04:55:07.000Z,26.40
2017-10-10T04:57:34.637Z,28.55
2017-10-10T05:00:02.298Z,25.80
2017-10-10T05:02:30.682Z,32.33
2017-10-10T05:04:58.400Z,32.97
2017-10-10T05:07:26.174Z,30.77
2017-10-10T05:09:54.570Z,33.33
2017-10-10T05:12:22.232Z,28.87
2017-10-10T05:14:49.853Z,34.10
2017-10-10T05:17:17.473Z,35.53
2017-10-10T05:19:46.073Z,29.52
2017-10-10T05:22:13.706Z,20.67
2017-10-10T05:24:41.369Z,33.55
2017-10-10T05:27:08.989Z,26.75
2017-10-10T05:29:37.414Z,36.78
2017-10-10T05:32:05.078Z,40.15
2017-10-10T05:34:32.717Z,45.58
2017-10-10T05:37:00.390Z,34.83
2017-10-10T05:39:28.774Z,28.05
2017-10-10T05:41:56.402Z,31.83
2017-10-10T05:44:24.945Z,31.98
2017-10-10T05:46:52.604Z,31.95
2017-10-10T05:49:21.027Z,29.83
2017-10-10T05:51:48.666Z,39.55
2017-10-10T05:54:16.336Z,22.62
2017-10-10T05:56:43.986Z,42.58
2017-10-10T05:59:11.606Z,29.73
2017-10-10T06:01:39.305Z,23.45
2017-10-10T06:04:08.063Z,28.52
2017-10-10T06:06:35.814Z,36.90
2017-10-10T06:09:03.464Z,27.08
2017-10-10T06:11:31.099Z,32.42
2017-10-10T06:13:58.750Z,26.73
2017-10-10T06:16:26.383Z,22.42
2017-10-10T06:18:54.010Z,21.45
2017-10-10T06:21:21.654Z,27.30
2017-10-10T06:23:49.341Z,26.08
2017-10-10T06:26:17.001Z,22.62
2017-10-10T06:28:45.407Z,27.70
2017-10-10T06:31:13.278Z,23.52
2017-10-10T06:33:40.937Z,26.00
2017-10-10T06:36:08.567Z,20.42
2017-10-10T06:38:36.286Z,20.65
2017-10-10T06:41:03.911Z,34.75
2017-10-10T06:43:32.295Z,30.20
2017-10-10T06:45:59.938Z,19.77
2017-10-10T06:48:27.557Z,19.15
2017-10-10T06:50:56.166Z,28.65
2017-10-10T06:53:23.795Z,24.40
2017-10-10T06:55:51.417Z,20.17
2017-10-10T06:58:19.821Z,17.45
2017-10-10T07:00:47.448Z,19.48
2017-10-10T07:03:15.160Z,18.73
2017-10-10T07:05:42.956Z,21.33
2017-10-10T07:08:10.570Z,15.60
2017-10-10T07:10:38.997Z,18.20
2017-10-10T07:13:06.675Z,17.87
2017-10-10T07:15:34.334Z,21.37
2017-10-10T07:18:02.722Z,12.68
2017-10-10T07:20:30.357Z,15.50
2017-10-10T07:22:58.766Z,15.60
2017-10-10T07:25:26.412Z,13.88
2017-10-10T07:27:54.072Z,12.00
2017-10-10T07:30:21.710Z,15.77
2017-10-10T07:32:49.330Z,13.27
2017-10-10T07:35:16.983Z,12.25
2017-10-10T07:37:44.597Z,13.85
2017-10-10T07:40:13.022Z,17.90
2017-10-10T07:42:40.897Z,15.85
2017-10-10T07:45:08.604Z,14.50
2017-10-10T07:47:36.294Z,18.30
2017-10-10T07:50:04.706Z,15.27
2017-10-10T07:52:32.362Z,12.00
2017-10-10T07:54:59.982Z,14.65
2017-10-10T07:57:27.602Z,13.45
2017-10-10T07:59:56.142Z,12.35
2017-10-10T08:02:23.785Z,16.90
2017-10-10T08:04:51.680Z,15.00
2017-10-10T08:07:20.073Z,18.25
2017-10-10T08:09:47.690Z,17.60
2017-10-10T08:12:16.188Z,27.52
2017-10-10T08:14:44.085Z,19.12
2017-10-10T08:17:11.742Z,15.75
2017-10-10T08:19:40.134Z,22.65
2017-10-10T08:22:07.763Z,26.08
2017-10-10T08:24:35.421Z,17.30
2017-10-10T08:27:03.062Z,22.48
2017-10-10T08:29:30.713Z,21.90
2017-10-10T08:31:58.351Z,26.58
2017-10-10T08:34:26.138Z,21.70
2017-10-10T08:36:53.798Z,18.73
2017-10-10T08:39:21.422Z,30.50
2017-10-10T08:41:49.093Z,26.45
2017-10-10T08:44:17.174Z,28.60
2017-10-10T08:46:44.824Z,22.10
2017-10-10T08:49:13.254Z,27.08
2017-10-10T08:51:40.879Z,22.85
2017-10-10T08:54:08.555Z,27.13
2017-10-10T08:56:36.259Z,23.00
2017-10-10T08:59:03.887Z,26.55
2017-10-10T09:01:32.311Z,24.75
2017-10-10T09:03:59.984Z,24.77
2017-10-10T09:06:27.646Z,23.92
2017-10-10T09:08:56.138Z,24.05
2017-10-10T09:11:23.761Z,24.45
2017-10-10T09:13:52.173Z,23.27
2017-10-10T09:16:19.857Z,22.27
2017-10-10T09:18:47.518Z,22.83
2017-10-10T09:21:15.977Z,23.87
2017-10-10T09:23:44.374Z,23.77
2017-10-10T09:26:12.030Z,19.60
2017-10-10T09:28:39.665Z,22.27
2017-10-10T09:31:07.339Z,22.35
2017-10-10T09:33:34.973Z,20.83
2017-10-10T09:36:02.606Z,20.37
2017-10-10T09:38:30.253Z,20.30
2017-10-10T09:40:57.874Z,22.50
2017-10-10T09:43:26.327Z,20.25
2017-10-10T09:45:53.956Z,20.37
2017-10-10T09:48:21.615Z,20.15
2017-10-10T09:50:49.262Z,17.30
2017-10-10T09:53:16.887Z,21.30
2017-10-10T09:55:44.550Z,18.08
2017-10-10T09:58:12.203Z,23.30
2017-10-10T10:00:39.837Z,19.65
2017-10-10T10:03:07.494Z,17.87
2017-10-10T10:05:35.119Z,20.60
2017-10-10T10:08:02.795Z,22.20
2017-10-10T10:10:31.183Z,20.83
2017-10-10T10:12:58.812Z,17.67
2017-10-10T10:15:27.266Z,18.50
2017-10-10T10:17:54.895Z,21.15
2017-10-10T10:20:22.550Z,19.30
2017-10-10T10:22:50.185Z,21.10
2017-10-10T10:25:17.819Z,21.37
2017-10-10T10:27:46.377Z,19.10
2017-10-10T10:30:14.010Z,19.95
2017-10-10T10:32:41.670Z,21.27
2017-10-10T10:35:09.287Z,22.62
2017-10-10T10:37:36.909Z,23.67
2017-10-10T10:40:05.375Z,21.87
2017-10-10T10:42:33.758Z,22.17
2017-10-10T10:45:01.425Z,21.00
2017-10-10T10:47:29.050Z,20.42
2017-10-10T10:49:57.439Z,19.90
2017-10-10T10:52:25.105Z,23.60
2017-10-10T10:54:52.721Z,20.45
2017-10-10T10:57:20.382Z,20.75
2017-10-10T10:59:48.015Z,24.55
2017-10-10T11:02:15.665Z,18.30
2017-10-10T11:04:43.305Z,19.42
2017-10-10T11:07:10.927Z,18.83
2017-10-10T11:09:39.350Z,17.12
2017-10-10T11:12:06.994Z,19.52
2017-10-10T11:14:34.617Z,19.40
2017-10-10T11:17:02.274Z,20.95
2017-10-10T11:19:29.903Z,19.87
2017-10-10T11:21:57.569Z,19.95
2017-10-10T11:24:25.212Z,21.08
2017-10-10T11:26:52.922Z,17.40
2017-10-10T11:29:20.565Z,18.52
2017-10-10T11:31:48.956Z,20.23
2017-10-10T11:34:16.626Z,19.87
2017-10-10T11:36:44.253Z,22.30
2017-10-10T11:39:11.874Z,17.55
2017-10-10T11:41:40.298Z,19.27
2017-10-10T11:44:07.933Z,17.12
2017-10-10T11:46:35.637Z,19.10
2017-10-10T11:49:04.034Z,19.25
2017-10-10T11:51:31.654Z,18.50
2017-10-10T11:53:59.301Z,18.90
2017-10-10T11:56:26.918Z,14.80
2017-10-10T11:58:54.574Z,18.92
2017-10-10T12:01:22.958Z,16.55
2017-10-10T12:03:50.582Z,19.20
2017-10-10T12:06:19.044Z,16.77
2017-10-10T12:08:47.439Z,17.45
2017-10-10T12:11:15.099Z,15.75
2017-10-10T12:13:42.847Z,16.27
2017-10-10T12:16:10.466Z,16.17
2017-10-10T12:18:38.121Z,17.48
2017-10-10T12:21:05.795Z,16.40
2017-10-10T12:23:33.457Z,16.23
2017-10-10T12:26:01.075Z,12.40
2017-10-10T12:28:28.699Z,12.88
2017-10-10T12:30:57.240Z,13.45
2017-10-10T12:33:24.865Z,12.82
2017-10-10T12:35:52.528Z,15.60
2017-10-10T12:38:20.162Z,13.75
2017-10-10T12:40:47.798Z,12.90
2017-10-10T12:43:16.166Z,13.07
2017-10-10T12:45:43.793Z,11.48
2017-10-10T12:48:11.462Z,11.88
2017-10-10T12:50:39.137Z,11.57
2017-10-10T12:53:06.758Z,11.95
2017-10-10T12:55:34.425Z,11.35
2017-10-10T12:58:02.038Z,10.55
2017-10-10T13:00:29.698Z,12.10
2017-10-10T13:02:57.317Z,10.95
2017-10-10T13:05:24.952Z,11.25
2017-10-10T13:07:52.598Z,11.27
2017-10-10T13:10:20.210Z,10.25
2017-10-10T13:12:47.870Z,10.40
2017-10-10T13:15:16.287Z,10.07
2017-10-10T13:17:43.905Z,10.30
2017-10-10T13:20:11.543Z,10.85
2017-10-10T13:22:39.170Z,11.57
2017-10-10T13:25:06.850Z,10.20
2017-10-10T13:27:34.471Z,10.75
2017-10-10T13:30:02.863Z,10.90
2017-10-10T13:32:30.521Z,12.60
2017-10-10T13:34:58.141Z,10.48
2017-10-10T13:37:25.830Z,9.88
2017-10-10T13:39:53.462Z,11.30
2017-10-10T13:42:21.085Z,10.57
2017-10-10T13:44:48.735Z,10.63
2017-10-10T13:47:16.622Z,11.27
2017-10-10T13:49:44.278Z,10.68
2017-10-10T13:52:11.914Z,10.63
2017-10-10T13:54:39.538Z,10.10
2017-10-10T13:57:07.247Z,9.80
2017-10-10T13:59:35.794Z,10.55
2017-10-10T14:02:03.450Z,10.73
2017-10-10T14:04:31.074Z,9.77
2017-10-10T14:06:58.703Z,10.00
2017-10-10T14:09:26.351Z,9.85
2017-10-10T14:11:53.970Z,10.10
2017-10-10T14:14:21.624Z,10.77
2017-10-10T14:16:49.236Z,9.90
2017-10-10T14:19:17.626Z,11.02
2017-10-10T14:21:45.382Z,11.23
2017-10-10T14:24:13.005Z,9.00
2017-10-10T14:26:41.426Z,10.02
2017-10-10T14:29:09.082Z,10.95
2017-10-10T14:31:37.039Z,11.25
2017-10-10T14:34:04.698Z,9.52
2017-10-10T14:36:32.335Z,11.43
2017-10-10T14:38:59.996Z,10.60
2017-10-10T14:41:28.395Z,11.15
2017-10-10T14:43:56.173Z,10.63
2017-10-10T14:46:23.822Z,10.55
2017-10-10T14:48:51.441Z,10.10
2017-10-10T14:51:19.127Z,9.18
2017-10-10T14:53:46.847Z,9.45
2017-10-10T14:56:14.479Z,10.13
2017-10-10T14:58:42.126Z,10.85
2017-10-10T15:01:09.746Z,9.93
2017-10-10T15:03:37.455Z,10.15
2017-10-10T15:06:05.084Z,9.52
2017-10-10T15:08:32.946Z,10.95
2017-10-10T15:11:00.602Z,10.10
2017-10-10T15:13:28.351Z,12.50
2017-10-10T15:15:56.272Z,11.88
2017-10-10T15:18:23.919Z,13.85
2017-10-10T15:20:51.538Z,11.35
2017-10-10T15:23:19.372Z,12.48
2017-10-10T15:25:47.776Z,12.68
2017-10-10T15:28:16.288Z,13.02
2017-10-10T15:30:43.926Z,12.82
2017-10-10T15:33:11.558Z,14.45
2017-10-10T15:35:39.228Z,13.52
2017-10-10T15:38:06.863Z,14.60
2017-10-10T15:40:34.593Z,13.10
2017-10-10T15:43:02.239Z,14.00
2017-10-10T15:45:29.879Z,14.43
2017-10-10T15:47:57.549Z,12.23
2017-10-10T15:50:25.216Z,14.63
2017-10-10T15:52:52.976Z,15.80
2017-10-10T15:55:21.385Z,14.30
2017-10-10T15:57:49.050Z,16.35
2017-10-10T16:00:16.894Z,14.80
2017-10-10T16:02:44.536Z,15.70
2017-10-10T16:05:12.220Z,14.85
2017-10-10T16:07:39.953Z,15.82
2017-10-10T16:10:07.582Z,15.35
2017-10-10T16:12:35.248Z,15.60
2017-10-10T16:15:02.974Z,12.45
2017-10-10T16:17:30.647Z,15.32
2017-10-10T16:19:58.275Z,14.68
2017-10-10T16:22:26.105Z,15.82
2017-10-10T16:24:53.786Z,17.35
2017-10-10T16:27:21.453Z,16.23
2017-10-10T16:29:49.927Z,18.35
2017-10-10T16:32:17.590Z,14.40
2017-10-10T16:34:46.239Z,14.05
2017-10-10T16:37:13.887Z,14.45
2017-10-10T16:39:41.593Z,14.20
2017-10-10T16:42:09.257Z,14.35
2017-10-10T16:44:36.924Z,14.87
2017-10-10T16:47:04.555Z,16.55
2017-10-10T16:49:32.210Z,13.27
2017-10-10T16:51:59.843Z,12.90
2017-10-10T16:54:27.614Z,12.25
2017-10-10T16:56:55.381Z,11.73
2017-10-10T16:59:27.472Z,13.00
2017-10-10T17:01:55.378Z,10.95
2017-10-10T17:04:23.794Z,13.55
2017-10-10T17:06:51.455Z,15.23
2017-10-10T17:09:19.088Z,11.90
2017-10-10T17:11:47.186Z,9.95
2017-10-10T17:14:15.818Z,11.82
2017-10-10T17:16:44.318Z,11.52
2017-10-10T17:19:12.195Z,10.38
2017-10-10T17:21:40.635Z,12.65
2017-10-10T17:24:08.250Z,10.20
2017-10-10T17:26:35.891Z,10.80
2017-10-10T17:29:03.536Z,10.07
2017-10-10T17:31:31.178Z,10.95
2017-10-10T17:33:58.859Z,9.18
2017-10-10T17:36:26.479Z,9.93
2017-10-10T17:38:54.104Z,9.75
2017-10-10T17:41:21.778Z,10.90
2017-10-10T17:43:49.386Z,9.70
2017-10-10T17:46:17.039Z,9.13
2017-10-10T17:48:44.659Z,10.65
2017-10-10T17:51:12.301Z,10.48
2017-10-10T17:53:40.711Z,9.25
2017-10-10T17:56:08.374Z,8.52
2017-10-10T17:58:36.119Z,9.18
2017-10-10T18:01:03.755Z,9.70
2017-10-10T18:03:31.370Z,9.88
2017-10-10T18:05:59.794Z,8.68
2017-10-10T18:08:27.488Z,8.63
2017-10-10T18:10:55.390Z,9.27
2017-10-10T18:13:23.049Z,11.25
2017-10-10T18:15:50.707Z,8.13
2017-10-10T18:18:18.380Z,9.13
2017-10-10T18:20:46.307Z,10.35
2017-10-10T18:23:13.988Z,8.10
2017-10-10T18:25:41.663Z,8.15
2017-10-10T18:28:09.316Z,8.45
2017-10-10T18:30:37.114Z,6.65
2017-10-10T18:33:05.555Z,8.40
2017-10-10T18:35:33.214Z,8.00
2017-10-10T18:38:00.874Z,8.90
2017-10-10T18:40:29.311Z,10.02
2017-10-10T18:42:56.966Z,9.30
2017-10-10T18:45:24.606Z,9.48
2017-10-10T18:47:52.289Z,9.43
2017-10-10T18:50:19.918Z,8.80
2017-10-10T18:52:48.310Z,8.32
2017-10-10T18:55:16.018Z,8.48
2017-10-10T18:57:43.646Z,8.25
2017-10-10T19:00:11.306Z,8.57
2017-10-10T19:02:38.930Z,8.00
2017-10-10T19:05:06.538Z,7.65
2017-10-10T19:07:34.388Z,7.60
2017-10-10T19:10:02.010Z,8.15
2017-10-10T19:12:30.426Z,7.97
2017-10-10T19:14:58.046Z,10.60
2017-10-10T19:17:25.798Z,7.65
2017-10-10T19:19:53.498Z,8.40
2017-10-10T19:22:21.125Z,8.60
2017-10-10T19:24:48.778Z,9.30
2017-10-10T19:27:16.960Z,7.28
2017-10-10T19:29:45.353Z,9.00
2017-10-10T19:32:12.989Z,8.48
2017-10-10T19:34:40.618Z,8.52
2017-10-10T19:37:08.279Z,8.60
2017-10-10T19:39:36.761Z,9.30
2017-10-10T19:42:04.374Z,9.13
2017-10-10T19:44:32.352Z,9.35
2017-10-10T19:46:59.998Z,9.10
2017-10-10T19:49:28.427Z,8.43
2017-10-10T19:51:56.220Z,9.50
2017-10-10T19:54:23.850Z,9.00
2017-10-10T19:56:52.266Z,9.57
2017-10-10T19:59:19.890Z,8.25
2017-10-10T20:01:47.559Z,8.95
2017-10-10T20:04:15.260Z,7.62
2017-10-10T20:06:42.926Z,8.30
2017-10-10T20:09:10.567Z,8.43
2017-10-10T20:11:38.947Z,8.02
2017-10-10T20:14:06.602Z,6.72
2017-10-10T20:16:34.224Z,7.70
2017-10-10T20:19:01.940Z,8.40
2017-10-10T20:21:29.592Z,7.43
2017-10-10T20:23:57.252Z,8.02
2017-10-10T20:26:25.860Z,8.25
2017-10-10T20:28:53.489Z,8.32
2017-10-10T20:31:21.098Z,9.00
2017-10-10T20:33:48.755Z,7.62
2017-10-10T20:36:18.562Z,9.10
2017-10-10T20:38:46.269Z,9.13
2017-10-10T20:41:13.881Z,9.40
2017-10-10T20:43:41.588Z,8.70
2017-10-10T20:46:09.242Z,11.30
2017-10-10T20:48:37.639Z,11.93
2017-10-10T20:51:05.357Z,10.65
2017-10-10T20:53:33.742Z,10.38
2017-10-10T20:56:01.368Z,10.00
2017-10-10T20:58:29.782Z,11.43
2017-10-10T21:00:57.410Z,10.40
2017-10-10T21:03:25.111Z,11.60
2017-10-10T21:05:52.734Z,9.98
2017-10-10T21:08:20.362Z,11.15
2017-10-10T21:10:48.015Z,10.45
2017-10-10T21:13:15.862Z,10.20
2017-10-10T21:15:43.514Z,9.48
2017-10-10T21:18:11.202Z,9.13
2017-10-10T21:20:38.823Z,10.70
2017-10-10T21:23:06.476Z,9.60
2017-10-10T21:25:34.101Z,9.35
2017-10-10T21:28:01.751Z,8.48
2017-10-10T21:30:29.359Z,9.77
2017-10-10T21:32:56.990Z,8.35
2017-10-10T21:35:25.399Z,9.40
2017-10-10T21:37:53.026Z,10.27
2017-10-10T21:40:20.699Z,10.13
2017-10-10T21:42:48.318Z,8.90
2017-10-10T21:45:16.147Z,8.70
2017-10-10T21:47:43.782Z,9.07
2017-10-10T21:50:12.191Z,9.48
2017-10-10T21:52:39.839Z,8.82
2017-10-10T21:55:07.460Z,8.10
2017-10-10T21:57:35.084Z,8.32
2017-10-10T22:00:03.491Z,10.48
2017-10-10T22:02:31.119Z,9.27
2017-10-10T22:04:58.780Z,10.38
2017-10-10T22:07:26.418Z,10.00
2017-10-10T22:09:54.029Z,10.35
2017-10-10T22:12:21.686Z,10.90
2017-10-10T22:14:50.067Z,10.35
2017-10-10T22:17:17.734Z,10.80
2017-10-10T22:19:45.379Z,10.45
2017-10-10T22:22:13.001Z,10.00
2017-10-10T22:24:40.664Z,11.25
2017-10-10T22:27:08.278Z,9.82
2017-10-10T22:29:37.091Z,11.80
2017-10-10T22:32:04.725Z,12.32
2017-10-10T22:34:32.339Z,10.80
2017-10-10T22:37:02.892Z,10.25
2017-10-10T22:39:30.505Z,10.23
2017-10-10T22:41:58.170Z,10.95
2017-10-10T22:44:25.859Z,10.82
2017-10-10T22:46:53.477Z,10.23
2017-10-10T22:49:21.119Z,10.40
2017-10-10T22:51:48.738Z,10.77
2017-10-10T22:54:19.918Z,9.95
2017-10-10T22:56:47.537Z,10.55
2017-10-10T22:59:15.213Z,10.15
2017-10-10T23:01:42.949Z,9.65
2017-10-10T23:04:10.575Z,11.60
2017-10-10T23:06:38.233Z,10.27
2017-10-10T23:09:05.885Z,9.48
2017-10-10T23:11:33.675Z,10.02
2017-10-10T23:14:01.320Z,9.63
2017-10-10T23:16:28.950Z,9.82
2017-10-10T23:18:56.606Z,9.90
2017-10-10T23:21:24.226Z,9.05
2017-10-10T23:23:51.860Z,11.35
2017-10-10T23:26:19.505Z,9.60
2017-10-10T23:28:47.256Z,10.75
2017-10-10T23:31:14.918Z,11.25
2017-10-10T23:33:42.533Z,10.35
2017-10-10T23:36:10.913Z,9.68
2017-10-10T23:38:38.561Z,9.98
2017-10-10T23:41:06.291Z,10.15
2017-10-10T23:43:34.722Z,11.20
2017-10-10T23:46:02.344Z,9.35
2017-10-10T23:48:29.982Z,10.18
2017-10-10T23:50:57.631Z,11.77
2017-10-10T23:53:25.354Z,9.30
2017-10-10T23:55:52.999Z,9.00
2017-10-10T23:58:20.626Z,9.07
